sensor_id;sensor_type;location;lat;lon;timestamp;pressure;altitude;pressure_sealevel;temperature;humidity
12247;BME280;6186;52.022;4.692;2023-01-19T00:02:19;100107.16;;;5.35;100.00
12247;BME280;6186;52.022;4.692;2023-01-19T00:04:44;100108.88;;;5.36;100.00
12247;BME280;6186;52.022;4.692;2023-01-19T00:07:10;100104.53;;;5.34;100.00
12247;BME280;6186;52.022;4.692;2023-01-19T00:09:35;100103.72;;;5.33;100.00
12247;BME280;6186;52.022;4.692;2023-01-19T00:12:02;100095.00;;;5.33;100.00
12247;BME280;6186;52.022;4.692;2023-01-19T00:14:28;100101.91;;;5.37;100.00
12247;BME280;6186;52.022;4.692;2023-01-19T00:16:53;100101.88;;;5.38;100.00
12247;BME280;6186;52.022;4.692;2023-01-19T00:19:19;100116.59;;;5.42;100.00
12247;BME280;6186;52.022;4.692;2023-01-19T00:21:44;100133.09;;;5.44;100.00
12247;BME280;6186;52.022;4.692;2023-01-19T00:24:09;100125.31;;;5.43;100.00
12247;BME280;6186;52.022;4.692;2023-01-19T00:26:35;100144.53;;;5.36;100.00
12247;BME280;6186;52.022;4.692;2023-01-19T00:29:04;100140.34;;;5.26;100.00
12247;BME280;6186;52.022;4.692;2023-01-19T00:31:30;100132.63;;;5.18;100.00
12247;BME280;6186;52.022;4.692;2023-01-19T00:33:58;100132.75;;;5.09;100.00
12247;BME280;6186;52.022;4.692;2023-01-19T00:36:24;100131.13;;;5.02;100.00
12247;BME280;6186;52.022;4.692;2023-01-19T00:38:49;100127.72;;;4.97;100.00
12247;BME280;6186;52.022;4.692;2023-01-19T00:41:15;100128.66;;;4.93;100.00
12247;BME280;6186;52.022;4.692;2023-01-19T00:43:41;100125.19;;;4.91;100.00
12247;BME280;6186;52.022;4.692;2023-01-19T00:46:06;100131.31;;;4.90;100.00
12247;BME280;6186;52.022;4.692;2023-01-19T00:48:31;100135.63;;;4.91;100.00
12247;BME280;6186;52.022;4.692;2023-01-19T00:50:57;100143.41;;;4.94;100.00
12247;BME280;6186;52.022;4.692;2023-01-19T00:53:24;100146.84;;;4.96;100.00
12247;BME280;6186;52.022;4.692;2023-01-19T00:55:49;100140.78;;;4.97;100.00
12247;BME280;6186;52.022;4.692;2023-01-19T00:58:14;100145.94;;;5.00;100.00
12247;BME280;6186;52.022;4.692;2023-01-19T01:00:40;100151.09;;;5.05;100.00
12247;BME280;6186;52.022;4.692;2023-01-19T01:03:05;100150.16;;;5.09;100.00
12247;BME280;6186;52.022;4.692;2023-01-19T01:05:30;100147.53;;;5.10;100.00
12247;BME280;6186;52.022;4.692;2023-01-19T01:07:56;100142.31;;;5.10;100.00
12247;BME280;6186;52.022;4.692;2023-01-19T01:10:24;100137.09;;;5.10;100.00
12247;BME280;6186;52.022;4.692;2023-01-19T01:12:50;100162.31;;;5.10;100.00
12247;BME280;6186;52.022;4.692;2023-01-19T01:15:17;100161.44;;;5.09;100.00
12247;BME280;6186;52.022;4.692;2023-01-19T01:17:43;100165.75;;;5.12;100.00
12247;BME280;6186;52.022;4.692;2023-01-19T01:20:17;100177.94;;;5.13;100.00
12247;BME280;6186;52.022;4.692;2023-01-19T01:22:45;100171.78;;;5.15;100.00
12247;BME280;6186;52.022;4.692;2023-01-19T01:25:12;100177.00;;;5.15;100.00
12247;BME280;6186;52.022;4.692;2023-01-19T01:27:38;100169.22;;;5.14;100.00
12247;BME280;6186;52.022;4.692;2023-01-19T01:30:04;100176.16;;;5.16;100.00
12247;BME280;6186;52.022;4.692;2023-01-19T01:32:30;100176.16;;;5.15;100.00
12247;BME280;6186;52.022;4.692;2023-01-19T01:34:55;100192.72;;;5.12;100.00
12247;BME280;6186;52.022;4.692;2023-01-19T01:37:20;100184.94;;;5.08;100.00
12247;BME280;6186;52.022;4.692;2023-01-19T01:39:46;100205.97;;;4.96;100.00
12247;BME280;6186;52.022;4.692;2023-01-19T01:42:16;100219.19;;;4.82;100.00
12247;BME280;6186;52.022;4.692;2023-01-19T01:44:51;100216.69;;;4.71;100.00
12247;BME280;6186;52.022;4.692;2023-01-19T01:49:57;100218.59;;;4.57;100.00
12247;BME280;6186;52.022;4.692;2023-01-19T01:52:28;100224.75;;;4.52;100.00
12247;BME280;6186;52.022;4.692;2023-01-19T01:54:55;100223.91;;;4.50;100.00
12247;BME280;6186;52.022;4.692;2023-01-19T01:57:20;100236.91;;;4.50;100.00
12247;BME280;6186;52.022;4.692;2023-01-19T01:59:48;100229.13;;;4.45;100.00
12247;BME280;6186;52.022;4.692;2023-01-19T02:02:18;100229.13;;;4.45;100.00
12247;BME280;6186;52.022;4.692;2023-01-19T02:05:10;100233.47;;;4.45;100.00
12247;BME280;6186;52.022;4.692;2023-01-19T02:10:40;100246.47;;;4.49;100.00
12247;BME280;6186;52.022;4.692;2023-01-19T02:13:26;100248.16;;;4.53;100.00
12247;BME280;6186;52.022;4.692;2023-01-19T02:15:54;100257.72;;;4.56;100.00
12247;BME280;6186;52.022;4.692;2023-01-19T02:18:22;100253.34;;;4.56;100.00
12247;BME280;6186;52.022;4.692;2023-01-19T02:23:43;100261.19;;;4.55;100.00
12247;BME280;6186;52.022;4.692;2023-01-19T02:26:14;100274.22;;;4.55;100.00
12247;BME280;6186;52.022;4.692;2023-01-19T02:28:45;100259.44;;;4.55;100.00
12247;BME280;6186;52.022;4.692;2023-01-19T02:31:13;100268.13;;;4.56;100.00
12247;BME280;6186;52.022;4.692;2023-01-19T02:33:39;100272.47;;;4.55;100.00
12247;BME280;6186;52.022;4.692;2023-01-19T02:36:06;100264.69;;;4.54;100.00
12247;BME280;6186;52.022;4.692;2023-01-19T02:38:34;100254.31;;;4.45;100.00
12247;BME280;6186;52.022;4.692;2023-01-19T02:41:02;100263.03;;;4.44;100.00
12247;BME280;6186;52.022;4.692;2023-01-19T02:43:29;100264.78;;;4.42;100.00
12247;BME280;6186;52.022;4.692;2023-01-19T02:45:54;100257.00;;;4.39;100.00
12247;BME280;6186;52.022;4.692;2023-01-19T02:48:20;100266.59;;;4.37;100.00
12247;BME280;6186;52.022;4.692;2023-01-19T02:50:49;100293.50;;;4.36;100.00
12247;BME280;6186;52.022;4.692;2023-01-19T02:53:34;100297.84;;;4.35;100.00
12247;BME280;6186;52.022;4.692;2023-01-19T02:58:48;100297.09;;;4.23;100.00
12247;BME280;6186;52.022;4.692;2023-01-19T03:01:19;100297.94;;;4.25;100.00
12247;BME280;6186;52.022;4.692;2023-01-19T03:03:58;100288.47;;;4.18;100.00
12247;BME280;6186;52.022;4.692;2023-01-19T03:06:44;100299.72;;;4.21;100.00
12247;BME280;6186;52.022;4.692;2023-01-19T03:09:33;100289.28;;;4.21;100.00
12247;BME280;6186;52.022;4.692;2023-01-19T03:14:47;100312.69;;;4.24;100.00
12247;BME280;6186;52.022;4.692;2023-01-19T03:17:16;100310.09;;;4.23;100.00
12247;BME280;6186;52.022;4.692;2023-01-19T03:19:45;100313.59;;;4.23;100.00
12247;BME280;6186;52.022;4.692;2023-01-19T03:22:17;100314.47;;;4.21;100.00
12247;BME280;6186;52.022;4.692;2023-01-19T03:24:45;100315.31;;;4.26;100.00
12247;BME280;6186;52.022;4.692;2023-01-19T03:27:18;100306.63;;;4.25;100.00
12247;BME280;6186;52.022;4.692;2023-01-19T03:29:54;100288.41;;;4.22;100.00
12247;BME280;6186;52.022;4.692;2023-01-19T03:32:27;100273.69;;;4.20;100.00
12247;BME280;6186;52.022;4.692;2023-01-19T03:34:56;100289.28;;;4.23;100.00
12247;BME280;6186;52.022;4.692;2023-01-19T03:37:25;100284.13;;;4.18;100.00
12247;BME280;6186;52.022;4.692;2023-01-19T03:39:51;100294.47;;;4.26;100.00
12247;BME280;6186;52.022;4.692;2023-01-19T03:42:17;100293.59;;;4.25;100.00
12247;BME280;6186;52.022;4.692;2023-01-19T03:44:44;100294.47;;;4.23;100.00
12247;BME280;6186;52.022;4.692;2023-01-19T03:47:12;100292.78;;;4.22;100.00
12247;BME280;6186;52.022;4.692;2023-01-19T03:49:40;100293.63;;;4.21;100.00
12247;BME280;6186;52.022;4.692;2023-01-19T03:52:07;100302.34;;;4.20;100.00
12247;BME280;6186;52.022;4.692;2023-01-19T03:54:32;100309.28;;;4.18;100.00
12247;BME280;6186;52.022;4.692;2023-01-19T03:56:58;100315.34;;;4.20;100.00
12247;BME280;6186;52.022;4.692;2023-01-19T03:59:23;100310.16;;;4.20;100.00
12247;BME280;6186;52.022;4.692;2023-01-19T04:01:48;100323.16;;;4.20;100.00
12247;BME280;6186;52.022;4.692;2023-01-19T04:04:14;100316.22;;;4.17;100.00
12247;BME280;6186;52.022;4.692;2023-01-19T04:06:40;100321.47;;;4.16;100.00
12247;BME280;6186;52.022;4.692;2023-01-19T04:09:05;100316.25;;;4.16;100.00
12247;BME280;6186;52.022;4.692;2023-01-19T04:11:31;100317.97;;;4.15;100.00
12247;BME280;6186;52.022;4.692;2023-01-19T04:13:56;100321.47;;;4.16;100.00
12247;BME280;6186;52.022;4.692;2023-01-19T04:16:22;100320.59;;;4.15;100.00
12247;BME280;6186;52.022;4.692;2023-01-19T04:18:48;100320.56;;;4.17;100.00
12247;BME280;6186;52.022;4.692;2023-01-19T04:21:14;100314.47;;;4.19;100.00
12247;BME280;6186;52.022;4.692;2023-01-19T04:23:40;100309.25;;;4.22;100.00
12247;BME280;6186;52.022;4.692;2023-01-19T04:26:06;100306.66;;;4.24;100.00
12247;BME280;6186;52.022;4.692;2023-01-19T04:28:33;100313.53;;;4.28;100.00
12247;BME280;6186;52.022;4.692;2023-01-19T04:30:59;100303.97;;;4.30;100.00
12247;BME280;6186;52.022;4.692;2023-01-19T04:33:26;100308.28;;;4.32;100.00
12247;BME280;6186;52.022;4.692;2023-01-19T04:35:52;100303.09;;;4.31;100.00
12247;BME280;6186;52.022;4.692;2023-01-19T04:38:18;100303.97;;;4.33;100.00
12247;BME280;6186;52.022;4.692;2023-01-19T04:40:44;100303.00;;;4.40;100.00
12247;BME280;6186;52.022;4.692;2023-01-19T04:43:10;100306.50;;;4.40;100.00
12247;BME280;6186;52.022;4.692;2023-01-19T04:45:35;100310.88;;;4.37;100.00
12247;BME280;6186;52.022;4.692;2023-01-19T04:48:01;100304.72;;;4.44;100.00
12247;BME280;6186;52.022;4.692;2023-01-19T04:50:28;100309.88;;;4.47;100.00
12247;BME280;6186;52.022;4.692;2023-01-19T04:52:54;100302.94;;;4.47;100.00
12247;BME280;6186;52.022;4.692;2023-01-19T04:55:19;100312.47;;;4.51;100.00
12247;BME280;6186;52.022;4.692;2023-01-19T04:57:45;100309.84;;;4.56;100.00
12247;BME280;6186;52.022;4.692;2023-01-19T05:00:11;100320.19;;;4.60;100.00
12247;BME280;6186;52.022;4.692;2023-01-19T05:02:36;100320.16;;;4.62;100.00
12247;BME280;6186;52.022;4.692;2023-01-19T05:05:02;100316.69;;;4.63;100.00
12247;BME280;6186;52.022;4.692;2023-01-19T05:07:28;100318.47;;;4.61;100.00
12247;BME280;6186;52.022;4.692;2023-01-19T05:09:53;100323.63;;;4.67;100.00
12247;BME280;6186;52.022;4.692;2023-01-19T05:12:19;100337.50;;;4.69;100.00
12247;BME280;6186;52.022;4.692;2023-01-19T05:14:44;100322.69;;;4.69;100.00
12247;BME280;6186;52.022;4.692;2023-01-19T05:17:10;100330.53;;;4.71;100.00
12247;BME280;6186;52.022;4.692;2023-01-19T05:19:35;100327.91;;;4.69;100.00
12247;BME280;6186;52.022;4.692;2023-01-19T05:22:03;100335.75;;;4.71;100.00
12247;BME280;6186;52.022;4.692;2023-01-19T05:24:29;100320.13;;;4.68;100.00
12247;BME280;6186;52.022;4.692;2023-01-19T05:26:55;100328.84;;;4.67;100.00
12247;BME280;6186;52.022;4.692;2023-01-19T05:29:20;100336.56;;;4.74;100.00
12247;BME280;6186;52.022;4.692;2023-01-19T05:31:46;100338.28;;;4.77;100.00
12247;BME280;6186;52.022;4.692;2023-01-19T05:34:12;100336.53;;;4.77;100.00
12247;BME280;6186;52.022;4.692;2023-01-19T05:36:38;100353.00;;;4.81;100.00
12247;BME280;6186;52.022;4.692;2023-01-19T05:39:04;100353.00;;;4.83;100.00
12247;BME280;6186;52.022;4.692;2023-01-19T05:41:29;100350.38;;;4.84;100.00
12247;BME280;6186;52.022;4.692;2023-01-19T05:43:55;100346.94;;;4.79;100.00
12247;BME280;6186;52.022;4.692;2023-01-19T05:46:20;100354.69;;;4.87;100.00
12247;BME280;6186;52.022;4.692;2023-01-19T05:48:45;100359.91;;;4.88;100.00
12247;BME280;6186;52.022;4.692;2023-01-19T05:51:11;100359.91;;;4.88;100.00
12247;BME280;6186;52.022;4.692;2023-01-19T05:53:36;100359.91;;;4.88;100.00
12247;BME280;6186;52.022;4.692;2023-01-19T05:56:05;100362.50;;;4.90;100.00
12247;BME280;6186;52.022;4.692;2023-01-19T05:58:32;100356.47;;;4.82;100.00
12247;BME280;6186;52.022;4.692;2023-01-19T06:01:06;100368.63;;;4.84;100.00
12247;BME280;6186;52.022;4.692;2023-01-19T06:03:34;100376.41;;;4.87;100.00
12247;BME280;6186;52.022;4.692;2023-01-19T06:06:00;100366.88;;;4.83;100.00
12247;BME280;6186;52.022;4.692;2023-01-19T06:08:26;100371.22;;;4.86;100.00
12247;BME280;6186;52.022;4.692;2023-01-19T06:10:52;100375.56;;;4.85;100.00
12247;BME280;6186;52.022;4.692;2023-01-19T06:13:17;100378.16;;;4.85;100.00
12247;BME280;6186;52.022;4.692;2023-01-19T06:15:42;100360.88;;;4.76;100.00
12247;BME280;6186;52.022;4.692;2023-01-19T06:18:09;100376.53;;;4.75;100.00
12247;BME280;6186;52.022;4.692;2023-01-19T06:20:35;100378.25;;;4.77;100.00
12247;BME280;6186;52.022;4.692;2023-01-19T06:23:00;100382.63;;;4.74;100.00
12247;BME280;6186;52.022;4.692;2023-01-19T06:25:26;100387.88;;;4.71;100.00
12247;BME280;6186;52.022;4.692;2023-01-19T06:27:51;100393.97;;;4.68;100.00
12247;BME280;6186;52.022;4.692;2023-01-19T06:30:17;100392.25;;;4.66;100.00
12247;BME280;6186;52.022;4.692;2023-01-19T06:32:42;100390.53;;;4.62;100.00
12247;BME280;6186;52.022;4.692;2023-01-19T06:35:08;100408.78;;;4.65;100.00
12247;BME280;6186;52.022;4.692;2023-01-19T06:37:34;100410.53;;;4.63;100.00
12247;BME280;6186;52.022;4.692;2023-01-19T06:40:00;100411.41;;;4.63;100.00
12247;BME280;6186;52.022;4.692;2023-01-19T06:42:25;100415.69;;;4.66;100.00
12247;BME280;6186;52.022;4.692;2023-01-19T06:44:51;100420.91;;;4.69;100.00
12247;BME280;6186;52.022;4.692;2023-01-19T06:47:16;100422.59;;;4.71;100.00
12247;BME280;6186;52.022;4.692;2023-01-19T06:49:42;100423.47;;;4.73;100.00
12247;BME280;6186;52.022;4.692;2023-01-19T06:52:09;100428.66;;;4.75;100.00
12247;BME280;6186;52.022;4.692;2023-01-19T06:54:35;100434.75;;;4.74;100.00
12247;BME280;6186;52.022;4.692;2023-01-19T06:57:01;100435.63;;;4.74;100.00
12247;BME280;6186;52.022;4.692;2023-01-19T06:59:27;100452.13;;;4.75;100.00
12247;BME280;6186;52.022;4.692;2023-01-19T07:01:52;100465.16;;;4.76;100.00
12247;BME280;6186;52.022;4.692;2023-01-19T07:04:17;100473.84;;;4.78;100.00
12247;BME280;6186;52.022;4.692;2023-01-19T07:06:43;100467.72;;;4.81;100.00
12247;BME280;6186;52.022;4.692;2023-01-19T07:09:08;100465.97;;;4.83;100.00
12247;BME280;6186;52.022;4.692;2023-01-19T07:11:36;100452.97;;;4.80;100.00
12247;BME280;6186;52.022;4.692;2023-01-19T07:14:01;100465.09;;;4.86;100.00
12247;BME280;6186;52.022;4.692;2023-01-19T07:16:28;100459.00;;;4.85;100.00
12247;BME280;6186;52.022;4.692;2023-01-19T07:18:53;100456.44;;;4.82;100.00
12247;BME280;6186;52.022;4.692;2023-01-19T07:21:19;100472.94;;;4.84;100.00
12247;BME280;6186;52.022;4.692;2023-01-19T07:23:47;100451.19;;;4.84;100.00
12247;BME280;6186;52.022;4.692;2023-01-19T07:26:12;100473.75;;;4.89;100.00
12247;BME280;6186;52.022;4.692;2023-01-19T07:28:39;100482.41;;;4.93;100.00
12247;BME280;6186;52.022;4.692;2023-01-19T07:31:05;100484.13;;;4.92;100.00
12247;BME280;6186;52.022;4.692;2023-01-19T07:33:31;100491.97;;;4.94;100.00
12247;BME280;6186;52.022;4.692;2023-01-19T07:35:57;100498.91;;;4.93;100.00
12247;BME280;6186;52.022;4.692;2023-01-19T07:38:22;100501.56;;;4.90;100.00
12247;BME280;6186;52.022;4.692;2023-01-19T07:40:48;100505.03;;;4.89;100.00
12247;BME280;6186;52.022;4.692;2023-01-19T07:43:14;100492.88;;;4.87;100.00
12247;BME280;6186;52.022;4.692;2023-01-19T07:45:40;100509.38;;;4.90;100.00
12247;BME280;6186;52.022;4.692;2023-01-19T07:48:06;100524.13;;;4.93;100.00
12247;BME280;6186;52.022;4.692;2023-01-19T07:50:31;100533.72;;;4.89;100.00
12247;BME280;6186;52.022;4.692;2023-01-19T07:53:03;100513.72;;;4.91;100.00
12247;BME280;6186;52.022;4.692;2023-01-19T07:55:29;100518.94;;;4.91;100.00
12247;BME280;6186;52.022;4.692;2023-01-19T07:57:54;100528.50;;;4.89;100.00
12247;BME280;6186;52.022;4.692;2023-01-19T08:00:20;100528.50;;;4.89;100.00
12247;BME280;6186;52.022;4.692;2023-01-19T08:02:49;100540.69;;;4.90;100.00
12247;BME280;6186;52.022;4.692;2023-01-19T08:05:19;100545.88;;;4.89;100.00
12247;BME280;6186;52.022;4.692;2023-01-19T08:07:45;100532.91;;;4.79;100.00
12247;BME280;6186;52.022;4.692;2023-01-19T08:10:12;100551.16;;;4.81;100.00
12247;BME280;6186;52.022;4.692;2023-01-19T08:12:38;100559.81;;;4.86;100.00
12247;BME280;6186;52.022;4.692;2023-01-19T08:15:05;100563.28;;;4.88;100.00
12247;BME280;6186;52.022;4.692;2023-01-19T08:17:30;100569.38;;;4.90;100.00
12247;BME280;6186;52.022;4.692;2023-01-19T08:19:55;100578.88;;;4.94;100.00
12247;BME280;6186;52.022;4.692;2023-01-19T08:22:21;100567.59;;;4.94;100.00
12247;BME280;6186;52.022;4.692;2023-01-19T08:24:46;100580.59;;;5.01;100.00
12247;BME280;6186;52.022;4.692;2023-01-19T08:27:12;100575.31;;;5.04;100.00
12247;BME280;6186;52.022;4.692;2023-01-19T08:29:37;100577.91;;;5.07;100.00
12247;BME280;6186;52.022;4.692;2023-01-19T08:32:03;100582.25;;;5.10;100.00
12247;BME280;6186;52.022;4.692;2023-01-19T08:34:29;100580.50;;;5.10;100.00
12247;BME280;6186;52.022;4.692;2023-01-19T08:36:55;100581.41;;;5.05;100.00
12247;BME280;6186;52.022;4.692;2023-01-19T08:39:21;100587.50;;;5.07;100.00
12247;BME280;6186;52.022;4.692;2023-01-19T08:41:48;100593.56;;;5.06;100.00
12247;BME280;6186;52.022;4.692;2023-01-19T08:44:14;100595.34;;;5.05;100.00
12247;BME280;6186;52.022;4.692;2023-01-19T08:46:40;100595.31;;;5.04;100.00
12247;BME280;6186;52.022;4.692;2023-01-19T08:49:05;100599.69;;;5.02;100.00
12247;BME280;6186;52.022;4.692;2023-01-19T08:51:31;100587.53;;;4.96;100.00
12247;BME280;6186;52.022;4.692;2023-01-19T08:53:56;100593.59;;;5.00;100.00
12247;BME280;6186;52.022;4.692;2023-01-19T08:56:21;100590.06;;;5.10;100.00
12247;BME280;6186;52.022;4.692;2023-01-19T08:58:47;100595.22;;;5.22;100.00
12247;BME280;6186;52.022;4.692;2023-01-19T09:01:12;100592.50;;;5.32;100.00
12247;BME280;6186;52.022;4.692;2023-01-19T09:03:41;100594.13;;;5.45;100.00
12247;BME280;6186;52.022;4.692;2023-01-19T09:06:09;100596.56;;;5.66;100.00
12247;BME280;6186;52.022;4.692;2023-01-19T09:08:35;100589.38;;;5.91;100.00
12247;BME280;6186;52.022;4.692;2023-01-19T09:11:00;100596.06;;;6.18;100.00
12247;BME280;6186;52.022;4.692;2023-01-19T09:13:26;100601.06;;;6.36;100.00
12247;BME280;6186;52.022;4.692;2023-01-19T09:15:51;100598.38;;;6.42;100.00
12247;BME280;6186;52.022;4.692;2023-01-19T09:18:19;100582.75;;;6.36;100.00
12247;BME280;6186;52.022;4.692;2023-01-19T09:20:47;100600.06;;;6.49;100.00
12247;BME280;6186;52.022;4.692;2023-01-19T09:23:18;100612.19;;;6.51;100.00
12247;BME280;6186;52.022;4.692;2023-01-19T09:25:45;100609.69;;;6.44;100.00
12247;BME280;6186;52.022;4.692;2023-01-19T09:28:13;100607.13;;;6.38;100.00
12247;BME280;6186;52.022;4.692;2023-01-19T09:30:39;100606.28;;;6.36;100.00
12247;BME280;6186;52.022;4.692;2023-01-19T09:33:07;100620.22;;;6.39;100.00
12247;BME280;6186;52.022;4.692;2023-01-19T09:35:35;100622.72;;;6.48;100.00
12247;BME280;6186;52.022;4.692;2023-01-19T09:38:01;100619.09;;;6.60;100.00
12247;BME280;6186;52.022;4.692;2023-01-19T09:40:27;100622.38;;;6.73;100.00
12247;BME280;6186;52.022;4.692;2023-01-19T09:43:16;100624.78;;;6.91;100.00
12247;BME280;6186;52.022;4.692;2023-01-19T09:48:27;100632.78;;;7.39;100.00
12247;BME280;6186;52.022;4.692;2023-01-19T09:50:55;100633.47;;;7.50;100.00
12247;BME280;6186;52.022;4.692;2023-01-19T09:53:48;100637.66;;;7.59;100.00
12247;BME280;6186;52.022;4.692;2023-01-19T09:56:16;100642.06;;;7.58;100.00
12247;BME280;6186;52.022;4.692;2023-01-19T09:58:44;100643.84;;;7.56;100.00
12247;BME280;6186;52.022;4.692;2023-01-19T10:01:37;100643.69;;;7.66;100.00
12247;BME280;6186;52.022;4.692;2023-01-19T10:04:26;100647.88;;;7.74;100.00
12247;BME280;6186;52.022;4.692;2023-01-19T10:09:45;100652.91;;;7.88;100.00
12247;BME280;6186;52.022;4.692;2023-01-19T10:18:23;100648.66;;;7.81;100.00
12247;BME280;6186;52.022;4.692;2023-01-19T10:26:24;100662.38;;;7.96;100.00
12247;BME280;6186;52.022;4.692;2023-01-19T10:31:40;100666.13;;;8.32;100.00
12247;BME280;6186;52.022;4.692;2023-01-19T10:34:09;100668.25;;;8.56;100.00
12247;BME280;6186;52.022;4.692;2023-01-19T10:36:38;100660.88;;;8.76;100.00
12247;BME280;6186;52.022;4.692;2023-01-19T10:39:06;100657.94;;;8.90;100.00
12247;BME280;6186;52.022;4.692;2023-01-19T10:42:04;100670.31;;;9.24;100.00
12247;BME280;6186;52.022;4.692;2023-01-19T10:44:34;100663.97;;;9.70;100.00
12247;BME280;6186;52.022;4.692;2023-01-19T10:47:00;100662.78;;;10.16;100.00
12247;BME280;6186;52.022;4.692;2023-01-19T10:49:30;100660.31;;;10.75;100.00
12247;BME280;6186;52.022;4.692;2023-01-19T10:52:01;100655.91;;;11.33;100.00
12247;BME280;6186;52.022;4.692;2023-01-19T10:54:30;100661.13;;;11.89;100.00
12247;BME280;6186;52.022;4.692;2023-01-19T10:57:03;100659.38;;;12.14;100.00
12247;BME280;6186;52.022;4.692;2023-01-19T11:02:25;100650.38;;;12.44;100.00
12247;BME280;6186;52.022;4.692;2023-01-19T11:04:54;100658.22;;;12.70;100.00
12247;BME280;6186;52.022;4.692;2023-01-19T11:07:21;100659.38;;;13.11;100.00
12247;BME280;6186;52.022;4.692;2023-01-19T11:09:48;100661.53;;;13.45;100.00
12247;BME280;6186;52.022;4.692;2023-01-19T11:12:19;100664.88;;;13.71;100.00
12247;BME280;6186;52.022;4.692;2023-01-19T11:14:46;100664.66;;;13.97;100.00
12247;BME280;6186;52.022;4.692;2023-01-19T11:17:22;100652.03;;;14.24;100.00
12247;BME280;6186;52.022;4.692;2023-01-19T11:19:58;100656.78;;;13.96;100.00
12247;BME280;6186;52.022;4.692;2023-01-19T11:22:27;100664.78;;;13.30;100.00
12247;BME280;6186;52.022;4.692;2023-01-19T11:24:57;100655.03;;;13.08;100.00
12247;BME280;6186;52.022;4.692;2023-01-19T11:27:23;100664.34;;;13.18;100.00
12247;BME280;6186;52.022;4.692;2023-01-19T11:30:03;100658.53;;;13.32;100.00
12247;BME280;6186;52.022;4.692;2023-01-19T11:32:35;100657.72;;;13.52;100.00
12247;BME280;6186;52.022;4.692;2023-01-19T11:35:26;100653.72;;;13.63;100.00
12247;BME280;6186;52.022;4.692;2023-01-19T11:37:47;100651.50;;;13.74;100.00
12247;BME280;6186;52.022;4.692;2023-01-19T11:40:14;100648.69;;;13.57;100.00
12247;BME280;6186;52.022;4.692;2023-01-19T11:42:40;100651.66;;;13.28;100.00
12247;BME280;6186;52.022;4.692;2023-01-19T11:45:15;100649.78;;;12.61;100.00
12247;BME280;6186;52.022;4.692;2023-01-19T11:47:46;100664.31;;;11.98;100.00
12247;BME280;6186;52.022;4.692;2023-01-19T11:52:58;100659.19;;;12.91;100.00
12247;BME280;6186;52.022;4.692;2023-01-19T11:55:36;100647.97;;;12.86;100.00
12247;BME280;6186;52.022;4.692;2023-01-19T11:58:05;100657.16;;;12.26;100.00
12247;BME280;6186;52.022;4.692;2023-01-19T12:01:09;100658.28;;;11.69;100.00
12247;BME280;6186;52.022;4.692;2023-01-19T12:03:50;100666.88;;;12.26;100.00
12247;BME280;6186;52.022;4.692;2023-01-19T12:06:22;100660.47;;;13.27;100.00
12247;BME280;6186;52.022;4.692;2023-01-19T12:09:28;100653.97;;;13.36;100.00
12247;BME280;6186;52.022;4.692;2023-01-19T12:12:03;100661.41;;;13.48;100.00
12247;BME280;6186;52.022;4.692;2023-01-19T12:14:35;100665.03;;;13.88;100.00
12247;BME280;6186;52.022;4.692;2023-01-19T12:17:07;100659.50;;;13.30;100.00
12247;BME280;6186;52.022;4.692;2023-01-19T12:19:45;100662.34;;;12.29;100.00
12247;BME280;6186;52.022;4.692;2023-01-19T12:22:16;100660.69;;;11.49;100.00
12247;BME280;6186;52.022;4.692;2023-01-19T12:25:09;100658.72;;;10.98;100.00
12247;BME280;6186;52.022;4.692;2023-01-19T12:27:42;100661.94;;;10.48;100.00
12247;BME280;6186;52.022;4.692;2023-01-19T12:30:23;100664.53;;;10.50;100.00
12247;BME280;6186;52.022;4.692;2023-01-19T12:32:49;100651.56;;;11.02;100.00
12247;BME280;6186;52.022;4.692;2023-01-19T12:35:52;100660.06;;;12.20;100.00
12247;BME280;6186;52.022;4.692;2023-01-19T12:39:11;100660.06;;;13.81;100.00
12247;BME280;6186;52.022;4.692;2023-01-19T12:41:41;100654.03;;;14.59;100.00
12247;BME280;6186;52.022;4.692;2023-01-19T12:49:22;100657.84;;;14.72;100.00
12247;BME280;6186;52.022;4.692;2023-01-19T12:51:49;100653.75;;;14.05;100.00
12247;BME280;6186;52.022;4.692;2023-01-19T12:54:36;100655.22;;;13.04;100.00
12247;BME280;6186;52.022;4.692;2023-01-19T12:57:08;100643.66;;;12.11;100.00
12247;BME280;6186;52.022;4.692;2023-01-19T12:59:40;100653.28;;;11.32;100.00
12247;BME280;6186;52.022;4.692;2023-01-19T13:02:41;100656.06;;;11.27;100.00
12247;BME280;6186;52.022;4.692;2023-01-19T13:05:17;100653.50;;;12.06;100.00
12247;BME280;6186;52.022;4.692;2023-01-19T13:15:53;100638.81;;;14.44;100.00
12247;BME280;6186;52.022;4.692;2023-01-19T13:18:25;100642.78;;;15.12;100.00
12247;BME280;6186;52.022;4.692;2023-01-19T13:21:02;100648.41;;;15.60;100.00
12247;BME280;6186;52.022;4.692;2023-01-19T13:23:51;100651.28;;;15.91;100.00
12247;BME280;6186;52.022;4.692;2023-01-19T13:26:21;100654.63;;;15.94;100.00
12247;BME280;6186;52.022;4.692;2023-01-19T13:29:01;100642.72;;;15.67;100.00
12247;BME280;6186;52.022;4.692;2023-01-19T13:31:32;100656.53;;;15.57;100.00
12247;BME280;6186;52.022;4.692;2023-01-19T13:34:00;100658.31;;;15.38;100.00
12247;BME280;6186;52.022;4.692;2023-01-19T13:36:33;100651.88;;;15.06;100.00
12247;BME280;6186;52.022;4.692;2023-01-19T13:39:02;100654.66;;;14.84;100.00
12247;BME280;6186;52.022;4.692;2023-01-19T13:41:31;100652.94;;;14.83;100.00
12247;BME280;6186;52.022;4.692;2023-01-19T13:44:08;100659.31;;;14.59;100.00
12247;BME280;6186;52.022;4.692;2023-01-19T13:46:37;100666.84;;;14.08;100.00
12247;BME280;6186;52.022;4.692;2023-01-19T13:49:16;100667.63;;;13.68;100.00
12247;BME280;6186;52.022;4.692;2023-01-19T13:51:43;100677.22;;;13.28;100.00
12247;BME280;6186;52.022;4.692;2023-01-19T13:54:15;100661.28;;;12.83;100.00
12247;BME280;6186;52.022;4.692;2023-01-19T13:56:46;100670.22;;;12.56;100.00
12247;BME280;6186;52.022;4.692;2023-01-19T13:59:12;100668.72;;;12.24;100.00
12247;BME280;6186;52.022;4.692;2023-01-19T14:01:40;100664.56;;;11.91;100.00